createdAt,value
2022-09-12T00:10:00.349Z,97688.44
2022-09-12T00:20:08.948Z,97695.97
2022-09-12T00:30:12.603Z,97697.88
2022-09-12T00:40:15.190Z,97683.38
2022-09-12T00:50:27.220Z,97680.22
2022-09-12T01:00:30.502Z,97677.31
2022-09-12T01:10:43.511Z,97673.16
2022-09-12T01:21:05.056Z,97666.81
2022-09-12T01:31:40.912Z,97667.66
2022-09-12T01:42:10.929Z,97666.13
2022-09-12T01:52:33.105Z,97647.88
2022-09-12T02:03:02.587Z,97638.38
2022-09-12T02:13:15.727Z,97642.78
2022-09-12T02:23:32.268Z,97625.84
2022-09-12T02:34:04.871Z,97623.88
2022-09-12T02:44:09.665Z,97610.81
2022-09-12T02:54:15.837Z,97608.41
2022-09-12T03:04:57.691Z,97608.31
2022-09-12T03:15:10.922Z,97607.91
2022-09-12T03:25:31.393Z,97610.78
2022-09-12T03:35:33.060Z,97610.09
2022-09-12T03:45:36.057Z,97605.97
2022-09-12T03:55:39.397Z,97608.09
2022-09-12T04:05:41.015Z,97608.47
2022-09-12T04:15:42.458Z,97610.34
2022-09-12T04:25:44.000Z,97615.16
2022-09-12T04:35:45.540Z,97613.53
2022-09-12T04:45:47.038Z,97612.50
2022-09-12T04:55:48.946Z,97615.59
2022-09-12T05:05:53.314Z,97618.94
2022-09-12T05:15:59.966Z,97620.47
2022-09-12T05:26:03.432Z,97621.16
2022-09-12T05:36:09.510Z,97629.09
2022-09-12T05:46:22.038Z,97645.66
2022-09-12T05:56:26.195Z,97653.75
2022-09-12T06:06:29.358Z,97648.72
2022-09-12T06:16:32.769Z,97646.56
2022-09-12T06:26:34.746Z,97651.25
2022-09-12T06:36:42.100Z,97652.84
2022-09-12T06:46:44.565Z,97643.94
2022-09-12T06:56:46.126Z,97646.47
2022-09-12T07:06:48.071Z,97661.78
2022-09-12T07:16:49.495Z,97646.63
2022-09-12T07:26:50.984Z,97638.97
2022-09-12T07:36:52.465Z,97636.09
2022-09-12T07:46:53.908Z,97643.41
2022-09-12T07:56:55.616Z,97648.06
2022-09-12T08:06:57.248Z,97648.97
2022-09-12T08:16:58.744Z,97654.88
2022-09-12T08:27:00.265Z,97651.66
2022-09-12T08:37:02.056Z,97650.19
2022-09-12T08:47:25.101Z,97642.53
2022-09-12T08:57:26.752Z,97624.19
2022-09-12T09:07:42.347Z,97620.03
2022-09-12T09:17:49.948Z,97615.09
2022-09-12T09:28:12.765Z,97604.66
2022-09-12T09:38:54.170Z,97595.06
2022-09-12T09:48:59.280Z,97588.53
2022-09-12T09:59:26.499Z,97565.97
2022-09-12T10:09:33.703Z,97565.34
2022-09-12T10:19:40.490Z,97560.59
2022-09-12T10:29:48.367Z,97538.00
2022-09-12T10:39:56.224Z,97542.56
2022-09-12T10:50:28.488Z,97540.59
2022-09-12T11:00:34.535Z,97515.59
2022-09-12T11:10:51.769Z,97514.81
2022-09-12T11:21:09.650Z,97516.72
2022-09-12T11:31:24.982Z,97510.63
2022-09-12T11:41:37.947Z,97516.56
2022-09-12T11:52:11.083Z,97510.72
2022-09-12T12:02:20.738Z,97499.81
2022-09-12T12:12:27.560Z,97503.56
2022-09-12T12:22:29.271Z,97502.31
2022-09-12T12:32:30.732Z,97484.13
2022-09-12T12:42:35.165Z,97475.47
2022-09-12T12:52:51.544Z,97465.13
2022-09-12T13:03:08.044Z,97459.69
2022-09-12T13:13:09.719Z,97421.59
2022-09-12T13:23:26.702Z,97415.25
2022-09-12T13:33:51.033Z,97410.53
2022-09-12T13:43:52.845Z,97398.75
2022-09-12T13:53:58.716Z,97383.91
2022-09-12T14:04:18.846Z,97391.31
2022-09-12T14:14:38.967Z,97374.19
2022-09-12T14:24:40.794Z,97379.66
2022-09-12T14:34:42.529Z,97368.25
2022-09-12T14:44:58.188Z,97364.84
2022-09-12T14:55:23.897Z,97355.38
2022-09-12T15:05:27.495Z,97336.91
2022-09-12T15:15:28.928Z,97339.75
2022-09-12T15:25:30.424Z,97334.22
2022-09-12T15:35:33.579Z,97329.84
2022-09-12T15:45:35.418Z,97319.41
2022-09-12T15:55:37.391Z,97319.78
2022-09-12T16:05:38.815Z,97317.88
2022-09-12T16:15:40.859Z,97323.03
2022-09-12T16:25:42.993Z,97315.72
2022-09-12T16:35:44.729Z,97319.81
2022-09-12T16:45:46.851Z,97309.41
2022-09-12T16:55:49.401Z,97307.34
2022-09-12T17:06:01.208Z,97307.47
2022-09-12T17:16:07.539Z,97313.22
2022-09-12T17:26:10.565Z,97316.47
2022-09-12T17:36:17.766Z,97313.22
2022-09-12T17:46:19.965Z,97313.69
2022-09-12T17:56:21.487Z,97315.69
2022-09-12T18:06:24.079Z,97325.97
2022-09-12T18:16:26.684Z,97324.34
2022-09-12T18:26:29.773Z,97315.06
2022-09-12T18:36:31.703Z,97324.72
2022-09-12T18:46:34.889Z,97327.56
2022-09-12T18:56:38.229Z,97332.72
2022-09-12T19:06:42.964Z,97340.38
2022-09-12T19:16:44.735Z,97343.66
2022-09-12T19:26:46.293Z,97339.22
2022-09-12T19:36:47.963Z,97345.94
2022-09-12T19:46:49.685Z,97342.44
2022-09-12T19:56:51.308Z,97336.88
2022-09-12T20:06:52.782Z,97330.78
2022-09-12T20:16:54.264Z,97342.16
2022-09-12T20:26:57.703Z,97333.91
2022-09-12T20:36:59.253Z,97327.38
2022-09-12T20:47:00.786Z,97324.75
2022-09-12T20:57:02.400Z,97322.91
2022-09-12T21:07:03.941Z,97321.56
2022-09-12T21:17:05.674Z,97321.47
2022-09-12T21:27:07.429Z,97313.69
2022-09-12T21:37:09.128Z,97319.88
2022-09-12T21:47:10.632Z,97328.84
2022-09-12T21:57:12.118Z,97337.94
2022-09-12T22:07:14.996Z,97333.63
2022-09-12T22:17:16.791Z,97326.41
2022-09-12T22:27:18.375Z,97334.38
2022-09-12T22:37:23.017Z,97305.50
2022-09-12T22:47:24.867Z,97306.44
2022-09-12T22:57:26.831Z,97290.59
2022-09-12T23:07:28.741Z,97273.72
2022-09-12T23:17:30.334Z,97283.25
2022-09-12T23:27:32.850Z,97293.19
2022-09-12T23:37:34.665Z,97290.13
2022-09-12T23:47:36.356Z,97271.09
2022-09-12T23:57:39.361Z,97260.81
